GMMLGMMH

Guest
Details From GMML - HASSAN I
To GMMH - DAKHLA
Flight Number -
Tags generated
Created
Modified
Stats Distance 253 nm / 468 km
Max Altitude 30,700 ft / 9,357 m
Waypoints 4
Social Downloads 0
Likes 0
Share VATSIM

Download

Looking for another format? Having issues loading an existing format? Contact us
Advertisement - Login to hide

Notes

Basic altitude profile: - Ascent Rate: 2500ft/min - Ascent Speed: 250kts - Cruise Altitude: 35000ft - Cruise Speed: 420kts - Descent Rate: 1500ft/min - Descent Speed: 250kts Options: - Use NATs: yes - Use PACOTS: yes - Use low airways: yes - Use high airways: no

Route

GMML ARENA A600F DKH GMMH

ID Type Via Altitude Latitude Longitude Leg Dist Tot Dist Heading (true) Name
O GMML APT - 0 ft / 0 m 27.14365˚ -13.22540˚ - 0 nm - HASSAN I
ARENA FIX - 30,700 ft / 9,357 m 25.72809˚ -14.35859˚ 104 nm 104 nm 216° / 215° -
DKH VOR A600F (AWY-LO) 6,500 ft / 1,981 m 23.73977˚ -15.92632˚ 146 nm 251 nm 216° / 215° DAKHLA VOR-DME
O GMMH APT - 0 ft / 0 m 23.71829˚ -15.93199˚ 1 nm 252 nm 194° / 194° DAKHLA

Altitude Profile

Advertisement - Login to hide

Weather


0- 5 10 15 20 25 30 35+ Temperature / ° C

Clouds and Precipitation
Forecast for 2017-12-17 12:00 UTC. Updated an hour ago

Ground ~20,000 ft ~40,000 ft Winds

GMML

Details ICAO GMML (EUN)
Name HASSAN I
Region Morocco
Timezone Africa/El_Aaiun (UTC+0.0)
Stats Elevation 207 ft / 63 m (AMSL)
Location 27.143650° -13.225399°
Runways 2
Magnetic Variation 3.957° W

METAR

GMML 171000Z 03015KT 9999 BKN027 18/10 Q1022 NOSIG

Decode

TAF

TAF GMML 170500Z 1706/1812 02005KT 8000 SCT020

Decode

Departure Runways

ID Width Length Bearing (true) Bearing (mag) Surface Threshold Offset Overrun Length
02 148 ft / 45 m 8,890 ft / 2,710 m 16.42° 20.38° Asphalt 0 ft / 0 m 200 ft / 61 m
04 148 ft / 45 m 8,221 ft / 2,506 m 31.58° 35.54° Asphalt 0 ft / 0 m 0 ft / 0 m
20 148 ft / 45 m 8,890 ft / 2,710 m 196.43° 200.39° Asphalt 0 ft / 0 m 200 ft / 61 m
22 148 ft / 45 m 8,221 ft / 2,506 m 211.59° 215.55° Asphalt 0 ft / 0 m 658 ft / 201 m

GMMH

Details ICAO GMMH (VIL)
Name DAKHLA
Region Morocco
Timezone Africa/El_Aaiun (UTC+0.0)
Stats Elevation 36 ft / 11 m (AMSL)
Location 23.718294° -15.931993°
Runways 1
Magnetic Variation 5.266° W

METAR

GMMH 171000Z 10004KT 8000 BKN008 18/17 Q1022 NOSIG

Decode

TAF

TAF GMMH 170500Z 1706/1812 02007KT 6000 BKN020 PROB30 1706/1708 4000 BR BKN008 TEMPO 1702/1712 BKN010

Decode

Destination Runways

ID Width Length Bearing (true) Bearing (mag) Surface Threshold Offset Overrun Length
03 148 ft / 45 m 9,886 ft / 3,013 m 22.66° 27.93° Asphalt 0 ft / 0 m 323 ft / 98 m
21 148 ft / 45 m 9,886 ft / 3,013 m 202.67° 207.94° Asphalt 0 ft / 0 m 377 ft / 115 m

Popular Alternatives